createdAt,value
2023-01-29T00:02:23.118Z,102970.19
2023-01-29T00:04:49.454Z,102971.91
2023-01-29T00:07:15.735Z,102969.28
2023-01-29T00:09:41.971Z,102977.91
2023-01-29T00:12:11.457Z,102979.72
2023-01-29T00:14:37.856Z,102970.16
2023-01-29T00:17:04.309Z,102974.44
2023-01-29T00:19:30.648Z,102969.31
2023-01-29T00:21:57.139Z,102963.31
2023-01-29T00:24:23.604Z,102968.66
2023-01-29T00:26:50.191Z,102966.66
2023-01-29T00:29:17.883Z,102959.09
2023-01-29T00:31:44.795Z,102953.47
2023-01-29T00:34:11.187Z,102954.25
2023-01-29T00:36:37.771Z,102942.94
2023-01-29T00:39:10.895Z,102939.31
2023-01-29T00:41:56.428Z,102935.78
2023-01-29T00:44:41.835Z,102937.41
2023-01-29T00:47:28.211Z,102933.09
2023-01-29T00:49:54.901Z,102924.44
2023-01-29T00:52:24.089Z,102919.34
2023-01-29T00:54:50.888Z,102919.94
2023-01-29T00:57:17.272Z,102924.28
2023-01-29T00:59:43.569Z,102923.44
2023-01-29T01:02:28.775Z,102930.56
2023-01-29T01:04:55.119Z,102935.69
2023-01-29T01:07:21.409Z,102940.00
2023-01-29T01:10:06.329Z,102935.66
2023-01-29T01:12:32.766Z,102932.97
2023-01-29T01:14:59.070Z,102938.06
2023-01-29T01:17:25.675Z,102942.34
2023-01-29T01:19:51.934Z,102931.00
2023-01-29T01:22:18.393Z,102933.59
2023-01-29T01:24:44.769Z,102936.03
2023-01-29T01:27:11.265Z,102933.47
2023-01-29T01:29:37.847Z,102938.00
2023-01-29T01:32:04.600Z,102930.47
2023-01-29T01:34:30.920Z,102921.81
2023-01-29T01:36:57.342Z,102930.56
2023-01-29T01:39:24.820Z,102934.75
2023-01-29T01:41:53.489Z,102927.00
2023-01-29T01:44:38.519Z,102927.16
2023-01-29T01:47:04.871Z,102927.38
2023-01-29T01:49:31.776Z,102931.75
2023-01-29T01:51:58.344Z,102927.56
2023-01-29T01:54:26.770Z,102927.63
2023-01-29T01:56:55.833Z,102920.78
2023-01-29T01:59:22.766Z,102922.66
2023-01-29T02:01:51.051Z,102931.34
2023-01-29T02:04:39.204Z,102937.31
2023-01-29T02:07:25.947Z,102940.75
2023-01-29T02:09:54.178Z,102935.75
2023-01-29T02:12:20.914Z,102939.22
2023-01-29T02:14:47.883Z,102952.38
2023-01-29T02:17:15.578Z,102943.69
2023-01-29T02:19:47.778Z,102937.72
2023-01-29T02:22:26.001Z,102937.78
2023-01-29T02:25:09.656Z,102930.88
2023-01-29T02:27:35.980Z,102942.19
2023-01-29T02:30:24.938Z,102940.41
2023-01-29T02:32:58.781Z,102933.44
2023-01-29T02:35:34.495Z,102933.44
2023-01-29T02:38:03.885Z,102942.09
2023-01-29T02:40:35.732Z,102935.09
2023-01-29T02:43:06.699Z,102922.31
2023-01-29T02:45:40.955Z,102919.66
2023-01-29T02:48:11.668Z,102926.38
2023-01-29T02:50:40.716Z,102932.50
2023-01-29T02:53:16.207Z,102931.72
2023-01-29T02:55:46.043Z,102935.09
2023-01-29T02:58:31.402Z,102932.41
2023-01-29T03:01:00.677Z,102934.16
2023-01-29T03:03:31.078Z,102935.91
2023-01-29T03:06:18.368Z,102941.09
2023-01-29T03:08:50.021Z,102939.78
2023-01-29T03:11:17.574Z,102937.09
2023-01-29T03:13:49.972Z,102938.00
2023-01-29T03:16:20.211Z,102929.13
2023-01-29T03:18:50.897Z,102932.34
2023-01-29T03:22:02.039Z,102933.16
2023-01-29T03:24:53.142Z,102929.63
2023-01-29T03:27:41.901Z,102916.56
2023-01-29T03:30:29.134Z,102910.47
2023-01-29T03:32:56.352Z,102907.88
2023-01-29T03:35:35.428Z,102902.59
2023-01-29T03:38:03.169Z,102891.47
2023-01-29T03:40:50.949Z,102882.78
2023-01-29T03:43:25.710Z,102892.84
2023-01-29T03:46:02.574Z,102883.59
2023-01-29T03:48:35.388Z,102879.38
2023-01-29T03:51:01.668Z,102874.06
2023-01-29T03:53:30.838Z,102868.84
2023-01-29T03:56:12.630Z,102873.75
2023-01-29T03:58:42.568Z,102866.16
2023-01-29T04:01:13.764Z,102864.44
2023-01-29T04:03:42.954Z,102866.25
2023-01-29T04:06:11.276Z,102866.94
2023-01-29T04:08:58.880Z,102877.31
2023-01-29T04:11:25.696Z,102878.88
2023-01-29T04:13:52.392Z,102884.94
2023-01-29T04:16:23.907Z,102885.69
2023-01-29T04:18:50.254Z,102883.91
2023-01-29T04:21:17.246Z,102875.28
2023-01-29T04:23:43.535Z,102859.25
2023-01-29T04:26:25.039Z,102859.28
2023-01-29T04:29:09.895Z,102843.81
2023-01-29T04:31:46.646Z,102833.75
2023-01-29T04:34:18.763Z,102832.22
2023-01-29T04:36:53.700Z,102833.81
2023-01-29T04:39:23.031Z,102833.00
2023-01-29T04:42:02.964Z,102828.66
2023-01-29T04:44:29.299Z,102837.25
2023-01-29T04:47:08.011Z,102833.88
2023-01-29T04:49:36.382Z,102835.44
2023-01-29T04:52:10.740Z,102838.53
2023-01-29T04:54:58.336Z,102843.72
2023-01-29T04:57:25.334Z,102838.53
2023-01-29T05:00:00.568Z,102824.81
2023-01-29T05:02:28.343Z,102830.56
2023-01-29T05:04:56.611Z,102818.47
2023-01-29T05:07:24.218Z,102822.75
2023-01-29T05:09:50.806Z,102820.31
2023-01-29T05:12:18.388Z,102819.50
2023-01-29T05:14:45.948Z,102821.34
2023-01-29T05:17:19.871Z,102821.28
2023-01-29T05:19:46.696Z,102824.06
2023-01-29T05:22:15.343Z,102813.22
2023-01-29T05:24:41.652Z,102813.34
2023-01-29T05:27:30.147Z,102815.84
2023-01-29T05:29:57.505Z,102819.06
2023-01-29T05:32:23.752Z,102820.69
2023-01-29T05:34:50.059Z,102818.09
2023-01-29T05:37:16.308Z,102822.28
2023-01-29T05:39:42.681Z,102827.44
2023-01-29T05:42:09.022Z,102830.06
2023-01-29T05:44:35.234Z,102837.81
2023-01-29T05:47:02.713Z,102839.19
2023-01-29T05:49:29.181Z,102839.88
2023-01-29T05:51:55.545Z,102837.34
2023-01-29T05:54:21.862Z,102851.31
2023-01-29T05:56:48.205Z,102852.22
2023-01-29T05:59:15.296Z,102843.72
2023-01-29T06:01:41.657Z,102848.31
2023-01-29T06:04:08.354Z,102843.78
2023-01-29T06:06:34.646Z,102831.69
2023-01-29T06:09:00.954Z,102824.78
2023-01-29T06:11:27.287Z,102817.75
2023-01-29T06:13:53.719Z,102810.88
2023-01-29T06:16:20.063Z,102813.75
2023-01-29T06:18:46.435Z,102812.94
2023-01-29T06:21:13.471Z,102812.53
2023-01-29T06:23:40.131Z,102811.75
2023-01-29T06:26:08.039Z,102801.28
2023-01-29T06:28:34.416Z,102809.78
2023-01-29T06:31:22.005Z,102792.47
2023-01-29T06:33:50.889Z,102786.28
2023-01-29T06:36:17.192Z,102798.31
2023-01-29T06:38:43.439Z,102805.81
2023-01-29T06:41:10.868Z,102793.66
2023-01-29T06:43:37.772Z,102783.38
2023-01-29T06:46:04.157Z,102781.66
2023-01-29T06:48:30.780Z,102790.19
2023-01-29T06:51:01.394Z,102798.66
2023-01-29T06:53:27.669Z,102798.72
2023-01-29T06:55:54.388Z,102797.78
2023-01-29T06:58:20.891Z,102798.72
2023-01-29T07:00:47.287Z,102809.78
2023-01-29T07:03:14.032Z,102804.72
2023-01-29T07:05:40.300Z,102810.53
2023-01-29T07:08:06.911Z,102805.53
2023-01-29T07:10:33.225Z,102794.31
2023-01-29T07:12:59.553Z,102792.81
2023-01-29T07:15:26.719Z,102785.03
2023-01-29T07:18:14.103Z,102786.88
2023-01-29T07:20:40.838Z,102789.56
2023-01-29T07:23:08.701Z,102793.75
2023-01-29T07:25:35.885Z,102788.66
2023-01-29T07:28:02.291Z,102793.00
2023-01-29T07:30:29.063Z,102786.97
2023-01-29T07:32:55.827Z,102780.94
2023-01-29T07:35:22.158Z,102779.81
2023-01-29T07:37:55.854Z,102791.13
2023-01-29T07:40:25.940Z,102795.28
2023-01-29T07:42:57.155Z,102788.38
2023-01-29T07:45:23.670Z,102805.53
2023-01-29T07:47:54.725Z,102801.16
2023-01-29T07:50:24.475Z,102800.25
2023-01-29T07:52:50.768Z,102789.84
2023-01-29T07:55:17.431Z,102796.63
2023-01-29T07:57:44.684Z,102796.75
2023-01-29T08:00:12.043Z,102785.56
2023-01-29T08:02:38.675Z,102779.63
2023-01-29T08:05:05.182Z,102770.06
2023-01-29T08:07:31.588Z,102759.97
2023-01-29T08:09:58.072Z,102741.00
2023-01-29T08:12:24.645Z,102741.84
2023-01-29T08:14:50.974Z,102734.19
2023-01-29T08:17:17.342Z,102747.13
2023-01-29T08:19:43.655Z,102751.63
2023-01-29T08:22:10.103Z,102746.44
2023-01-29T08:24:47.908Z,102747.13
2023-01-29T08:27:23.062Z,102753.13
2023-01-29T08:29:49.686Z,102751.44
2023-01-29T08:32:15.946Z,102747.13
2023-01-29T08:34:42.500Z,102741.00
2023-01-29T08:37:08.918Z,102741.78
2023-01-29T08:39:35.399Z,102735.59
2023-01-29T08:42:01.822Z,102741.59
2023-01-29T08:44:28.285Z,102737.38
2023-01-29T08:46:55.023Z,102733.13
2023-01-29T08:49:21.481Z,102725.44
2023-01-29T08:51:47.887Z,102718.34
2023-01-29T08:54:14.355Z,102710.31
2023-01-29T08:56:40.608Z,102706.00
2023-01-29T08:59:06.908Z,102700.63
2023-01-29T09:01:33.407Z,102708.38
2023-01-29T09:03:59.936Z,102711.78
2023-01-29T09:06:26.384Z,102716.81
2023-01-29T09:08:52.707Z,102712.53
2023-01-29T09:11:18.970Z,102718.53
2023-01-29T09:13:45.313Z,102709.69
2023-01-29T09:16:11.661Z,102714.66
2023-01-29T09:18:37.981Z,102709.91
2023-01-29T09:21:05.064Z,102719.59
2023-01-29T09:23:31.570Z,102720.09
2023-01-29T09:25:58.401Z,102715.81
2023-01-29T09:28:24.859Z,102714.81
2023-01-29T09:30:51.295Z,102715.00
2023-01-29T09:33:18.358Z,102714.94
2023-01-29T09:35:46.832Z,102723.56
2023-01-29T09:38:13.512Z,102719.31
2023-01-29T09:40:42.786Z,102719.19
2023-01-29T09:43:12.059Z,102721.78
2023-01-29T09:45:49.857Z,102719.75
2023-01-29T09:48:16.619Z,102723.09
2023-01-29T09:50:45.830Z,102723.09
2023-01-29T09:53:21.879Z,102721.34
2023-01-29T09:56:11.801Z,102724.69
2023-01-29T09:58:42.913Z,102718.63
2023-01-29T10:01:09.370Z,102729.03
2023-01-29T10:03:35.878Z,102719.22
2023-01-29T10:06:15.012Z,102713.16
2023-01-29T10:08:59.737Z,102713.22
2023-01-29T10:11:38.149Z,102710.38
2023-01-29T10:14:11.770Z,102708.59
2023-01-29T10:16:57.803Z,102705.25
2023-01-29T10:19:33.461Z,102710.22
2023-01-29T10:22:06.701Z,102709.31
2023-01-29T10:24:48.390Z,102699.16
2023-01-29T10:27:16.726Z,102709.22
2023-01-29T10:29:43.963Z,102703.03
2023-01-29T10:32:18.497Z,102702.06
2023-01-29T10:34:52.791Z,102697.63
2023-01-29T10:37:24.077Z,102704.53
2023-01-29T10:39:51.036Z,102702.19
2023-01-29T10:42:46.592Z,102696.97
2023-01-29T10:45:26.902Z,102702.16
2023-01-29T10:48:19.600Z,102687.50
2023-01-29T10:50:52.337Z,102689.31
2023-01-29T10:53:30.671Z,102687.69
2023-01-29T10:56:17.403Z,102669.28
2023-01-29T10:58:48.676Z,102666.69
2023-01-29T11:01:15.021Z,102663.03
2023-01-29T11:03:41.837Z,102658.16
2023-01-29T11:06:12.887Z,102658.59
2023-01-29T11:09:03.375Z,102648.25
2023-01-29T11:11:50.544Z,102645.63
2023-01-29T11:14:21.486Z,102645.09
2023-01-29T11:16:48.468Z,102641.91
2023-01-29T11:19:15.464Z,102633.06
2023-01-29T11:21:58.587Z,102627.09
2023-01-29T11:24:25.332Z,102618.50
2023-01-29T11:26:52.889Z,102615.03
2023-01-29T11:29:34.496Z,102609.63
2023-01-29T11:32:02.965Z,102607.22
2023-01-29T11:34:31.014Z,102595.13
2023-01-29T11:36:59.291Z,102590.50
2023-01-29T11:39:27.407Z,102587.13
2023-01-29T11:42:04.106Z,102583.47
2023-01-29T11:44:32.181Z,102578.91
2023-01-29T11:47:09.857Z,102575.31
2023-01-29T11:49:36.310Z,102567.91
2023-01-29T11:52:04.528Z,102562.72
2023-01-29T11:54:34.689Z,102564.25
2023-01-29T11:57:02.260Z,102551.88
2023-01-29T11:59:28.542Z,102553.53
2023-01-29T12:01:55.434Z,102547.13
2023-01-29T12:04:23.229Z,102542.22
2023-01-29T12:06:52.569Z,102547.31
2023-01-29T12:09:29.261Z,102536.69
2023-01-29T12:11:55.764Z,102534.03
2023-01-29T12:14:22.022Z,102536.09
2023-01-29T12:17:06.559Z,102532.81
2023-01-29T12:19:38.884Z,102529.16
2023-01-29T12:22:21.024Z,102522.50
2023-01-29T12:24:52.793Z,102518.13
2023-01-29T12:27:29.821Z,102515.63
2023-01-29T12:30:17.320Z,102505.75
2023-01-29T12:32:54.232Z,102516.94
2023-01-29T12:35:20.469Z,102505.53
2023-01-29T12:38:00.794Z,102503.72
2023-01-29T12:40:29.722Z,102498.25
2023-01-29T12:42:58.815Z,102492.84
2023-01-29T12:45:26.918Z,102486.88
2023-01-29T12:47:59.666Z,102481.75
2023-01-29T12:50:32.444Z,102480.31
2023-01-29T12:53:06.073Z,102463.03
2023-01-29T12:55:47.904Z,102469.69
2023-01-29T12:58:16.333Z,102456.50
2023-01-29T13:00:51.463Z,102460.09
2023-01-29T13:03:21.270Z,102453.91
2023-01-29T13:05:52.457Z,102452.25
2023-01-29T13:08:35.130Z,102435.69
2023-01-29T13:11:04.505Z,102439.91
2023-01-29T13:13:33.025Z,102431.41
2023-01-29T13:16:01.010Z,102435.16
2023-01-29T13:18:37.784Z,102423.84
2023-01-29T13:21:04.919Z,102424.16
2023-01-29T13:23:40.486Z,102415.22
2023-01-29T13:26:06.882Z,102414.41
2023-01-29T13:28:33.253Z,102408.78
2023-01-29T13:31:11.248Z,102400.22
2023-01-29T13:33:38.502Z,102400.19
2023-01-29T13:36:05.144Z,102389.13
2023-01-29T13:38:33.225Z,102384.97
2023-01-29T13:41:08.566Z,102379.66
2023-01-29T13:43:37.114Z,102373.09
2023-01-29T13:46:09.234Z,102372.84
2023-01-29T13:48:40.991Z,102382.44
2023-01-29T13:51:15.492Z,102368.69
2023-01-29T13:53:42.059Z,102370.44
2023-01-29T13:56:27.100Z,102360.88
2023-01-29T13:58:54.441Z,102363.38
2023-01-29T14:01:40.682Z,102371.69
2023-01-29T14:04:19.152Z,102366.75
2023-01-29T14:06:49.918Z,102350.19
2023-01-29T14:09:32.927Z,102351.13
2023-01-29T14:11:59.650Z,102347.66
2023-01-29T14:14:44.644Z,102338.94
2023-01-29T14:17:11.925Z,102336.91
2023-01-29T14:19:38.408Z,102345.28
2023-01-29T14:22:05.355Z,102341.13
2023-01-29T14:24:33.700Z,102335.88
2023-01-29T14:26:59.952Z,102344.63
2023-01-29T14:29:34.697Z,102342.31
2023-01-29T14:32:01.509Z,102343.41
2023-01-29T14:34:30.747Z,102329.31
2023-01-29T14:37:00.889Z,102331.16
2023-01-29T14:39:35.581Z,102330.28
2023-01-29T14:42:03.814Z,102334.47
2023-01-29T14:44:45.681Z,102321.34
2023-01-29T14:47:19.090Z,102333.28
2023-01-29T14:50:08.613Z,102328.84
2023-01-29T14:52:40.329Z,102327.31
2023-01-29T14:55:18.917Z,102326.66
2023-01-29T14:57:45.994Z,102328.59
2023-01-29T15:00:26.503Z,102319.72
2023-01-29T15:03:01.413Z,102316.34
2023-01-29T15:05:31.351Z,102318.94
2023-01-29T15:08:06.169Z,102314.28
2023-01-29T15:10:43.252Z,102313.50
2023-01-29T15:13:17.207Z,102304.31
2023-01-29T15:15:46.279Z,102302.53
2023-01-29T15:18:12.592Z,102293.88
2023-01-29T15:20:39.892Z,102296.44
2023-01-29T15:23:24.899Z,102289.47
2023-01-29T15:25:52.477Z,102282.56
2023-01-29T15:28:18.855Z,102288.84
2023-01-29T15:30:45.313Z,102278.31
2023-01-29T15:33:14.286Z,102281.91
2023-01-29T15:35:41.474Z,102273.44
2023-01-29T15:38:18.704Z,102272.50
2023-01-29T15:40:52.312Z,102268.97
2023-01-29T15:43:20.761Z,102268.00
2023-01-29T15:45:47.230Z,102265.75
2023-01-29T15:48:17.200Z,102270.19
2023-01-29T15:50:44.304Z,102249.84
2023-01-29T15:53:15.952Z,102252.53
2023-01-29T15:55:43.197Z,102247.44
2023-01-29T15:58:21.834Z,102247.78
2023-01-29T16:00:52.370Z,102244.59
2023-01-29T16:03:26.483Z,102247.06
2023-01-29T16:05:53.271Z,102247.72
2023-01-29T16:08:20.704Z,102245.13
2023-01-29T16:10:51.064Z,102238.22
2023-01-29T16:13:22.543Z,102240.78
2023-01-29T16:15:57.978Z,102245.06
2023-01-29T16:18:36.210Z,102228.38
2023-01-29T16:21:12.767Z,102225.91
2023-01-29T16:23:43.973Z,102233.19
2023-01-29T16:26:14.858Z,102237.53
2023-01-29T16:28:42.276Z,102234.03
2023-01-29T16:31:09.979Z,102236.34
2023-01-29T16:33:39.963Z,102244.47
2023-01-29T16:36:13.872Z,102233.19
2023-01-29T16:38:44.153Z,102235.72
2023-01-29T16:41:23.927Z,102246.72
2023-01-29T16:43:51.719Z,102239.09
2023-01-29T16:46:37.446Z,102230.53
2023-01-29T16:49:24.097Z,102235.78
2023-01-29T16:51:50.399Z,102232.16
2023-01-29T16:54:18.203Z,102229.44
2023-01-29T16:56:45.767Z,102219.13
2023-01-29T16:59:17.526Z,102225.25
2023-01-29T17:01:43.900Z,102225.47
2023-01-29T17:04:13.170Z,102220.22
2023-01-29T17:06:42.554Z,102216.59
2023-01-29T17:09:17.802Z,102209.69
2023-01-29T17:11:44.110Z,102202.19
2023-01-29T17:14:16.359Z,102206.25
2023-01-29T17:16:49.564Z,102224.63
2023-01-29T17:19:20.684Z,102219.13
2023-01-29T17:21:47.225Z,102207.91
2023-01-29T17:24:13.578Z,102205.31
2023-01-29T17:26:40.301Z,102210.75
2023-01-29T17:29:09.621Z,102211.84
2023-01-29T17:31:36.065Z,102199.66
2023-01-29T17:34:09.388Z,102200.31
2023-01-29T17:36:35.894Z,102202.00
2023-01-29T17:39:02.157Z,102200.91
2023-01-29T17:41:29.984Z,102192.28
2023-01-29T17:43:56.585Z,102188.13
2023-01-29T17:46:22.879Z,102189.09
2023-01-29T17:48:49.491Z,102193.50
2023-01-29T17:51:17.079Z,102188.47
2023-01-29T17:53:46.171Z,102191.69
2023-01-29T17:56:17.621Z,102193.75
2023-01-29T17:58:44.100Z,102185.59
2023-01-29T18:01:10.359Z,102177.00
2023-01-29T18:03:36.839Z,102176.06
2023-01-29T18:06:03.464Z,102188.47
2023-01-29T18:08:32.568Z,102177.81
2023-01-29T18:10:59.367Z,102173.63
2023-01-29T18:13:25.900Z,102169.06
2023-01-29T18:15:52.548Z,102169.97
2023-01-29T18:18:19.873Z,102160.38
2023-01-29T18:20:46.191Z,102149.25
2023-01-29T18:23:13.138Z,102134.63
2023-01-29T18:25:39.454Z,102143.06
2023-01-29T18:28:06.323Z,102134.38
2023-01-29T18:30:33.067Z,102131.09
2023-01-29T18:32:59.578Z,102119.78
2023-01-29T18:35:27.318Z,102116.63
2023-01-29T18:37:53.600Z,102108.63
2023-01-29T18:40:19.945Z,102100.78
2023-01-29T18:42:46.690Z,102094.72
2023-01-29T18:45:13.490Z,102096.44
2023-01-29T18:47:39.939Z,102089.59
2023-01-29T18:50:06.856Z,102095.53
2023-01-29T18:52:34.265Z,102089.31
2023-01-29T18:55:01.276Z,102086.50
2023-01-29T18:58:28.033Z,102082.38
2023-01-29T19:00:14.315Z,102077.66
2023-01-29T19:02:40.694Z,102068.34
2023-01-29T19:05:07.091Z,102063.09
2023-01-29T19:07:33.579Z,102058.97
2023-01-29T19:09:59.896Z,102057.13
2023-01-29T19:12:26.217Z,102043.94
2023-01-29T19:14:52.708Z,102046.69
2023-01-29T19:17:19.756Z,102049.47
2023-01-29T19:19:46.157Z,102043.25
2023-01-29T19:22:12.447Z,102042.41
2023-01-29T19:24:38.875Z,102027.91
2023-01-29T19:27:06.499Z,102022.72
2023-01-29T19:29:33.236Z,102017.22
2023-01-29T19:31:59.657Z,102014.50
2023-01-29T19:34:25.951Z,102004.19
2023-01-29T19:36:52.308Z,102008.41
2023-01-29T19:39:18.932Z,101998.78
2023-01-29T19:41:45.444Z,101980.03
2023-01-29T19:44:12.072Z,101980.56
2023-01-29T19:46:39.001Z,101972.72
2023-01-29T19:49:06.598Z,101962.41
2023-01-29T19:51:32.969Z,101961.72
2023-01-29T19:53:59.326Z,101959.81
2023-01-29T19:56:25.622Z,101982.31
2023-01-29T19:58:57.380Z,101967.66
2023-01-29T20:01:29.541Z,101979.66
2023-01-29T20:03:56.518Z,101987.28
2023-01-29T20:06:25.104Z,101985.69
2023-01-29T20:08:51.748Z,101998.53
2023-01-29T20:11:19.225Z,101986.59
2023-01-29T20:13:49.626Z,101973.56
2023-01-29T20:16:16.699Z,101957.84
2023-01-29T20:18:43.159Z,101966.41
2023-01-29T20:21:10.998Z,101973.41
2023-01-29T20:23:39.716Z,101975.25
2023-01-29T20:26:07.622Z,101973.25
2023-01-29T20:28:34.926Z,101979.16
2023-01-29T20:31:01.409Z,101960.28
2023-01-29T20:33:27.949Z,101955.78
2023-01-29T20:35:58.198Z,101936.41
2023-01-29T20:38:26.056Z,101937.88
2023-01-29T20:40:52.350Z,101948.19
2023-01-29T20:43:18.632Z,101950.78
2023-01-29T20:45:45.074Z,101962.63
2023-01-29T20:48:11.486Z,101960.84
2023-01-29T20:50:37.778Z,101959.91
2023-01-29T20:53:04.166Z,101942.69
2023-01-29T20:55:31.492Z,101952.84
2023-01-29T20:58:04.945Z,101950.25
2023-01-29T21:00:33.047Z,101940.50
2023-01-29T21:02:59.404Z,101939.50
2023-01-29T21:05:25.759Z,101950.03
2023-01-29T21:07:52.016Z,101952.78
2023-01-29T21:10:18.744Z,101954.59
2023-01-29T21:12:46.500Z,101951.78
2023-01-29T21:15:12.851Z,101938.66
2023-01-29T21:17:39.227Z,101931.63
2023-01-29T21:20:07.607Z,101923.09
2023-01-29T21:22:33.958Z,101928.88
2023-01-29T21:25:00.321Z,101929.19
2023-01-29T21:27:26.729Z,101927.97
2023-01-29T21:29:53.006Z,101928.09
2023-01-29T21:32:19.449Z,101932.22
2023-01-29T21:34:45.747Z,101935.69
2023-01-29T21:37:12.267Z,101941.66
2023-01-29T21:39:38.636Z,101927.03
2023-01-29T21:42:23.813Z,101929.50
2023-01-29T21:44:50.331Z,101931.25
2023-01-29T21:47:16.766Z,101927.44
2023-01-29T21:49:43.949Z,101937.59
2023-01-29T21:52:11.411Z,101929.19
2023-01-29T21:54:39.820Z,101925.44
2023-01-29T21:57:08.460Z,101936.66
2023-01-29T21:59:34.835Z,101923.56
2023-01-29T22:02:01.407Z,101914.81
2023-01-29T22:04:27.833Z,101923.38
2023-01-29T22:06:54.377Z,101920.50
2023-01-29T22:09:21.082Z,101892.75
2023-01-29T22:11:47.488Z,101865.09
2023-01-29T22:14:13.811Z,101869.31
2023-01-29T22:16:40.358Z,101843.34
2023-01-29T22:19:06.727Z,101830.19
2023-01-29T22:21:35.714Z,101837.16
2023-01-29T22:24:02.737Z,101818.91
2023-01-29T22:26:31.680Z,101817.91
2023-01-29T22:29:00.118Z,101814.41
2023-01-29T22:31:26.407Z,101802.16
2023-01-29T22:33:53.355Z,101811.53
2023-01-29T22:36:20.027Z,101818.19
2023-01-29T22:38:46.578Z,101851.63
2023-01-29T22:41:13.475Z,101815.25
2023-01-29T22:43:41.052Z,101818.75
2023-01-29T22:46:08.183Z,101796.91
2023-01-29T22:48:34.540Z,101814.84
2023-01-29T22:51:11.112Z,101790.44
2023-01-29T22:53:44.455Z,101790.22
2023-01-29T22:56:11.353Z,101781.47
2023-01-29T22:58:38.049Z,101776.13
2023-01-29T23:01:04.424Z,101774.53
2023-01-29T23:03:30.966Z,101763.13
2023-01-29T23:05:57.286Z,101739.84
2023-01-29T23:08:23.634Z,101737.03
2023-01-29T23:10:50.146Z,101736.13
2023-01-29T23:13:16.607Z,101747.56
2023-01-29T23:15:42.919Z,101752.31
2023-01-29T23:18:09.345Z,101752.56
2023-01-29T23:20:35.699Z,101734.03
2023-01-29T23:23:02.095Z,101734.88
2023-01-29T23:25:48.395Z,101756.44
2023-01-29T23:28:15.628Z,101763.47
2023-01-29T23:30:42.009Z,101734.53
2023-01-29T23:33:11.894Z,101734.47
2023-01-29T23:35:38.570Z,101730.75
2023-01-29T23:38:04.881Z,101735.84
2023-01-29T23:40:31.149Z,101734.78
2023-01-29T23:42:57.372Z,101732.41
2023-01-29T23:45:23.651Z,101717.50
2023-01-29T23:47:49.990Z,101721.66
2023-01-29T23:50:16.848Z,101713.78
2023-01-29T23:52:43.340Z,101706.94
2023-01-29T23:55:09.873Z,101700.22
2023-01-29T23:57:36.160Z,101685.94
